createdAt,value
2019-04-19T00:00:14.796Z,95.10
2019-04-19T00:01:12.849Z,95.15
2019-04-19T00:02:13.557Z,95.28
2019-04-19T00:03:19.159Z,95.12
2019-04-19T00:04:15.029Z,95.07
2019-04-19T00:05:11.146Z,94.99
2019-04-19T00:06:16.241Z,95.07
2019-04-19T00:07:17.592Z,95.18
2019-04-19T00:08:28.840Z,95.23
2019-04-19T00:09:27.658Z,95.20
2019-04-19T00:10:23.887Z,95.28
2019-04-19T00:11:21.149Z,95.37
2019-04-19T00:12:21.920Z,95.50
2019-04-19T00:13:10.977Z,95.50
2019-04-19T00:14:10.747Z,95.72
2019-04-19T00:15:10.233Z,95.72
2019-04-19T00:16:10.912Z,95.77
2019-04-19T00:17:13.920Z,95.80
2019-04-19T00:18:14.691Z,95.91
2019-04-19T00:19:30.664Z,95.94
2019-04-19T00:20:32.755Z,96.09
2019-04-19T00:21:27.839Z,96.17
2019-04-19T00:22:28.672Z,96.28
2019-04-19T00:23:20.286Z,96.47
2019-04-19T00:24:10.173Z,96.72
2019-04-19T00:25:11.312Z,96.85
2019-04-19T00:26:10.636Z,96.80
2019-04-19T00:27:10.160Z,96.83
2019-04-19T00:28:14.871Z,96.85
2019-04-19T00:29:19.033Z,96.93
2019-04-19T00:30:24.093Z,97.04
2019-04-19T00:31:22.668Z,97.07
2019-04-19T00:32:24.133Z,97.07
2019-04-19T00:33:18.100Z,97.10
2019-04-19T00:34:10.453Z,97.26
2019-04-19T00:35:11.542Z,97.45
2019-04-19T00:36:12.587Z,97.36
2019-04-19T00:37:10.256Z,97.47
2019-04-19T00:38:14.572Z,97.50
2019-04-19T00:39:23.740Z,97.55
2019-04-19T00:40:26.720Z,97.64
2019-04-19T00:41:27.820Z,97.69
2019-04-19T00:42:25.861Z,97.66
2019-04-19T00:43:27.771Z,97.83
2019-04-19T00:44:37.549Z,98.04
2019-04-19T00:45:26.466Z,97.83
2019-04-19T00:46:27.909Z,97.96
2019-04-19T00:47:30.074Z,97.85
2019-04-19T00:48:33.415Z,97.80
2019-04-19T00:49:21.876Z,97.72
2019-04-19T00:50:21.319Z,97.72
2019-04-19T00:51:20.600Z,97.64
2019-04-19T00:52:33.038Z,97.64
2019-04-19T00:53:24.080Z,97.66
2019-04-19T00:54:17.875Z,97.77
2019-04-19T00:55:16.500Z,97.85
2019-04-19T00:56:16.729Z,97.88
2019-04-19T00:57:19.187Z,97.93
2019-04-19T00:58:17.665Z,97.99
2019-04-19T00:59:14.569Z,97.88
2019-04-19T01:00:17.307Z,98.02
2019-04-19T01:01:17.164Z,98.10
2019-04-19T01:02:15.638Z,98.21
2019-04-19T01:03:13.426Z,98.29
2019-04-19T01:04:13.440Z,98.53
2019-04-19T01:05:14.630Z,98.42
2019-04-19T01:06:15.041Z,98.42
2019-04-19T01:07:20.085Z,98.53
2019-04-19T01:08:14.026Z,98.48
2019-04-19T01:09:26.734Z,98.37
2019-04-19T01:10:29.260Z,98.29
2019-04-19T01:11:23.483Z,98.37
2019-04-19T01:12:20.671Z,98.26
2019-04-19T01:13:18.077Z,98.12
2019-04-19T01:14:21.669Z,98.10
2019-04-19T01:15:22.377Z,98.04
2019-04-19T01:16:21.144Z,98.02
2019-04-19T01:17:22.700Z,97.85
2019-04-19T01:18:24.539Z,97.88
2019-04-19T01:19:14.666Z,97.88
2019-04-19T01:20:12.184Z,97.88
2019-04-19T01:21:11.329Z,97.74
2019-04-19T01:22:17.408Z,97.88
2019-04-19T01:23:13.807Z,97.66
2019-04-19T01:24:11.202Z,97.80
2019-04-19T01:25:17.077Z,97.99
2019-04-19T01:26:13.638Z,97.91
2019-04-19T01:27:13.272Z,97.99
2019-04-19T01:28:15.972Z,98.23
2019-04-19T01:29:12.861Z,98.12
2019-04-19T01:30:10.494Z,97.96
2019-04-19T01:31:16.439Z,97.88
2019-04-19T01:32:13.167Z,97.99
2019-04-19T01:33:10.607Z,97.93
2019-04-19T01:34:16.476Z,97.93
2019-04-19T01:35:15.304Z,97.93
2019-04-19T01:36:10.447Z,97.91
2019-04-19T01:37:16.258Z,98.04
2019-04-19T01:38:12.306Z,98.12
2019-04-19T01:39:25.483Z,98.31
2019-04-19T01:40:26.157Z,98.34
2019-04-19T01:41:27.075Z,98.50
2019-04-19T01:42:32.325Z,98.61
2019-04-19T01:43:33.437Z,98.59
2019-04-19T01:44:29.022Z,98.61
2019-04-19T01:45:26.881Z,98.61
2019-04-19T01:46:31.311Z,98.72
2019-04-19T01:47:30.388Z,98.64
2019-04-19T01:48:32.636Z,98.64
2019-04-19T01:49:21.039Z,98.61
2019-04-19T01:50:24.584Z,98.64
2019-04-19T01:51:33.645Z,98.53
2019-04-19T01:52:37.092Z,98.53
2019-04-19T01:53:29.376Z,98.53
2019-04-19T01:54:26.708Z,98.61
2019-04-19T01:55:18.884Z,98.61
2019-04-19T01:56:14.821Z,98.59
2019-04-19T01:57:12.727Z,98.50
2019-04-19T01:58:14.625Z,98.59
2019-04-19T01:59:10.304Z,98.61
2019-04-19T02:00:12.941Z,98.55
2019-04-19T02:01:16.530Z,98.59
2019-04-19T02:02:14.342Z,98.66
2019-04-19T02:03:11.115Z,98.80
2019-04-19T02:04:15.526Z,98.83
2019-04-19T02:05:14.551Z,98.96
2019-04-19T02:06:13.945Z,99.07
2019-04-19T02:07:15.809Z,99.07
2019-04-19T02:08:14.084Z,99.15
2019-04-19T02:09:11.239Z,99.21
2019-04-19T02:10:21.495Z,99.21
2019-04-19T02:11:23.222Z,99.15
2019-04-19T02:12:26.067Z,99.15
2019-04-19T02:13:21.276Z,99.13
2019-04-19T02:14:18.691Z,99.13
2019-04-19T02:15:14.879Z,98.94
2019-04-19T02:16:16.965Z,98.94
2019-04-19T02:17:13.158Z,98.83
2019-04-19T02:18:11.443Z,98.80
2019-04-19T02:19:16.301Z,98.80
2019-04-19T02:20:11.993Z,98.94
2019-04-19T02:21:12.926Z,98.94
2019-04-19T02:22:16.065Z,99.29
2019-04-19T02:23:13.129Z,99.13
2019-04-19T02:24:10.661Z,99.21
2019-04-19T02:25:15.958Z,99.21
2019-04-19T02:26:14.673Z,99.21
2019-04-19T02:27:13.446Z,99.26
2019-04-19T02:28:17.276Z,99.34
2019-04-19T02:29:14.555Z,99.34
2019-04-19T02:30:19.553Z,99.43
2019-04-19T02:31:31.969Z,99.59
2019-04-19T02:33:38.943Z,99.67
2019-04-19T02:34:37.079Z,99.75
2019-04-19T02:35:34.941Z,99.81
2019-04-19T02:36:47.926Z,99.75
2019-04-19T02:37:31.613Z,99.99
2019-04-19T02:38:36.373Z,99.96
2019-04-19T02:39:56.134Z,99.99
2019-04-19T02:40:52.322Z,99.89
2019-04-19T02:43:45.858Z,99.83
2019-04-19T02:44:45.827Z,99.83
2019-04-19T02:46:48.093Z,99.78
2019-04-19T02:51:00.701Z,99.72
2019-04-19T02:51:38.783Z,99.86
2019-04-19T02:52:40.940Z,99.81
2019-04-19T02:53:42.934Z,99.83
2019-04-19T02:54:40.807Z,99.67
2019-04-19T02:55:40.953Z,99.67
2019-04-19T02:56:59.796Z,99.72
2019-04-19T02:58:33.697Z,99.81
2019-04-19T02:59:47.380Z,99.83
2019-04-19T03:01:44.809Z,99.86
2019-04-19T03:02:50.632Z,99.89
2019-04-19T03:03:53.076Z,99.92
2019-04-19T03:04:45.608Z,99.99
2019-04-19T03:05:31.902Z,99.94
2019-04-19T03:06:25.317Z,99.96
2019-04-19T03:07:11.321Z,99.96
2019-04-19T03:08:10.553Z,99.99
2019-04-19T03:09:11.334Z,99.99
2019-04-19T03:10:15.358Z,99.99
2019-04-19T03:11:28.147Z,99.99
2019-04-19T03:12:32.095Z,99.99
2019-04-19T03:13:25.987Z,99.99
2019-04-19T03:14:20.847Z,99.99
2019-04-19T03:15:35.079Z,99.99
2019-04-19T03:16:32.436Z,99.99
2019-04-19T03:17:30.858Z,99.99
2019-04-19T03:19:23.404Z,99.99
2019-04-19T03:20:26.266Z,99.99
2019-04-19T03:21:25.256Z,99.99
2019-04-19T03:22:45.498Z,99.99
2019-04-19T03:23:23.309Z,99.99
2019-04-19T03:24:23.888Z,99.99
2019-04-19T03:25:24.046Z,99.99
2019-04-19T03:26:26.718Z,99.99
2019-04-19T03:27:17.961Z,99.99
2019-04-19T03:28:22.022Z,99.99
2019-04-19T03:29:20.664Z,99.99
2019-04-19T03:30:29.926Z,99.99
2019-04-19T03:31:40.919Z,99.99
2019-04-19T03:34:42.495Z,99.99
2019-04-19T03:35:28.497Z,99.99
2019-04-19T03:36:24.614Z,99.99
2019-04-19T03:37:32.952Z,99.99
2019-04-19T03:38:30.216Z,99.99
2019-04-19T03:39:29.815Z,99.99
2019-04-19T03:40:35.055Z,99.99
2019-04-19T03:41:40.633Z,99.99
2019-04-19T03:42:35.204Z,99.99
2019-04-19T03:43:39.566Z,99.99
2019-04-19T03:44:25.429Z,99.99
2019-04-19T03:45:28.693Z,99.99
2019-04-19T03:46:31.015Z,99.99
2019-04-19T03:47:27.945Z,99.99
2019-04-19T03:48:27.102Z,99.99
2019-04-19T03:50:26.658Z,99.99
2019-04-19T03:51:31.231Z,99.99
2019-04-19T03:52:26.349Z,99.99
2019-04-19T03:53:39.483Z,99.99
2019-04-19T03:54:30.063Z,99.99
2019-04-19T03:55:26.004Z,99.99
2019-04-19T03:56:28.822Z,99.99
2019-04-19T03:57:23.350Z,99.99
2019-04-19T03:58:14.947Z,99.99
2019-04-19T03:59:10.312Z,99.99
2019-04-19T04:00:11.114Z,99.99
2019-04-19T04:01:10.797Z,99.99
2019-04-19T04:02:10.391Z,99.99
2019-04-19T04:03:19.535Z,99.99
2019-04-19T04:04:16.697Z,99.99
2019-04-19T04:05:13.010Z,99.99
2019-04-19T04:06:12.415Z,99.99
2019-04-19T04:07:15.410Z,99.99
2019-04-19T04:08:16.323Z,99.99
2019-04-19T04:09:11.358Z,99.99
2019-04-19T04:10:15.058Z,99.99
2019-04-19T04:11:15.111Z,99.99
2019-04-19T04:12:24.900Z,99.99
2019-04-19T04:13:20.238Z,99.99
2019-04-19T04:14:21.713Z,99.99
2019-04-19T04:15:19.710Z,99.99
2019-04-19T04:16:23.013Z,99.99
2019-04-19T04:17:10.295Z,99.99
2019-04-19T04:18:11.257Z,99.99
2019-04-19T04:19:10.341Z,99.99
2019-04-19T04:20:11.375Z,99.99
2019-04-19T04:21:10.311Z,99.99
2019-04-19T04:22:18.041Z,99.99
2019-04-19T04:23:15.518Z,99.99
2019-04-19T04:24:20.152Z,99.99
2019-04-19T04:25:19.793Z,99.99
2019-04-19T04:26:14.804Z,99.99
2019-04-19T04:27:21.508Z,99.99
2019-04-19T04:28:26.366Z,99.99
2019-04-19T04:29:20.558Z,99.99
2019-04-19T04:30:21.976Z,99.99
2019-04-19T04:31:20.609Z,99.99
2019-04-19T04:32:19.613Z,99.99
2019-04-19T04:33:26.247Z,99.99
2019-04-19T04:34:29.356Z,99.99
2019-04-19T04:35:29.335Z,99.99
2019-04-19T04:36:30.584Z,99.99
2019-04-19T04:37:28.336Z,99.99
2019-04-19T04:38:19.461Z,99.99
2019-04-19T04:39:11.319Z,99.99
2019-04-19T04:40:10.545Z,99.99
2019-04-19T04:41:15.648Z,99.99
2019-04-19T04:42:20.163Z,99.99
2019-04-19T04:43:28.505Z,99.99
2019-04-19T04:44:29.538Z,99.99
2019-04-19T04:45:30.158Z,99.99
2019-04-19T04:46:35.383Z,99.99
2019-04-19T04:47:28.754Z,99.99
2019-04-19T04:48:36.392Z,99.99
2019-04-19T04:49:34.447Z,99.99
2019-04-19T04:50:42.301Z,99.99
2019-04-19T04:51:31.046Z,99.99
2019-04-19T04:52:20.144Z,99.99
2019-04-19T04:53:10.919Z,99.99
2019-04-19T04:54:10.388Z,99.99
2019-04-19T04:55:11.430Z,99.99
2019-04-19T04:56:11.807Z,99.99
2019-04-19T04:57:14.584Z,99.99
2019-04-19T04:58:18.587Z,99.99
2019-04-19T04:59:15.351Z,99.99
2019-04-19T05:00:11.777Z,99.99
2019-04-19T05:01:15.280Z,99.99
2019-04-19T05:02:30.177Z,99.99
2019-04-19T05:03:31.065Z,99.99
2019-04-19T05:04:26.292Z,99.99
2019-04-19T05:05:31.576Z,99.99
2019-04-19T05:06:28.176Z,99.99
2019-04-19T05:07:32.841Z,99.99
2019-04-19T05:08:31.475Z,99.99
2019-04-19T05:09:27.992Z,99.99
2019-04-19T05:10:28.148Z,99.99
2019-04-19T05:11:24.479Z,99.99
2019-04-19T05:12:36.403Z,99.99
2019-04-19T05:13:30.547Z,99.99
2019-04-19T05:14:28.660Z,99.99
2019-04-19T05:15:43.201Z,99.99
2019-04-19T05:16:43.222Z,99.99
2019-04-19T05:17:39.240Z,99.99
2019-04-19T05:18:29.404Z,99.99
2019-04-19T05:19:30.577Z,99.99
2019-04-19T05:20:28.816Z,99.99
2019-04-19T05:21:27.584Z,99.99
2019-04-19T05:22:24.679Z,99.99
2019-04-19T05:23:27.788Z,99.99
2019-04-19T05:24:33.800Z,99.99
2019-04-19T05:25:36.207Z,99.99
2019-04-19T05:26:49.562Z,99.99
2019-04-19T05:27:33.334Z,99.99
2019-04-19T05:28:27.799Z,99.99
2019-04-19T05:29:19.923Z,99.99
2019-04-19T05:30:11.262Z,99.99
2019-04-19T05:31:16.497Z,99.99
2019-04-19T05:32:21.095Z,99.99
2019-04-19T05:33:20.875Z,99.99
2019-04-19T05:34:26.166Z,99.99
2019-04-19T05:35:23.732Z,99.99
2019-04-19T05:36:30.973Z,99.99
2019-04-19T05:37:22.874Z,99.99
2019-04-19T05:38:30.545Z,99.99
2019-04-19T05:39:31.480Z,99.99
2019-04-19T05:40:27.957Z,99.99
2019-04-19T05:41:28.319Z,99.99
2019-04-19T05:42:24.525Z,99.99
2019-04-19T05:43:50.099Z,99.99
2019-04-19T05:44:37.574Z,99.99
2019-04-19T05:46:39.142Z,99.99
2019-04-19T05:47:28.324Z,99.99
2019-04-19T05:48:24.612Z,99.99
2019-04-19T05:49:31.282Z,99.99
2019-04-19T05:50:30.118Z,99.99
2019-04-19T05:51:35.785Z,99.99
2019-04-19T05:52:30.507Z,99.99
2019-04-19T05:53:22.161Z,99.99
2019-04-19T05:54:13.513Z,99.99
2019-04-19T05:55:11.555Z,99.99
2019-04-19T05:56:11.474Z,98.50
2019-04-19T05:57:31.942Z,97.07
2019-04-19T05:58:20.275Z,95.28
2019-04-19T05:59:17.554Z,93.91
2019-04-19T06:00:25.988Z,93.13
2019-04-19T06:01:34.268Z,91.86
2019-04-19T06:02:21.903Z,90.07
2019-04-19T06:03:21.170Z,88.12
2019-04-19T06:04:29.126Z,85.83
2019-04-19T06:05:36.382Z,82.75
2019-04-19T06:06:31.903Z,82.43
2019-04-19T06:07:27.464Z,82.56
2019-04-19T06:08:20.240Z,82.08
2019-04-19T06:09:11.172Z,80.87
2019-04-19T06:10:12.318Z,78.78
2019-04-19T06:11:10.768Z,78.47
2019-04-19T06:12:17.820Z,78.20
2019-04-19T06:13:13.960Z,77.57
2019-04-19T06:14:35.884Z,76.70
2019-04-19T06:15:33.357Z,76.44
2019-04-19T06:16:25.663Z,76.94
2019-04-19T06:17:27.816Z,76.91
2019-04-19T06:18:25.303Z,75.99
2019-04-19T06:19:30.219Z,76.15
2019-04-19T06:20:26.482Z,76.49
2019-04-19T06:21:28.863Z,74.84
2019-04-19T06:22:29.810Z,74.99
2019-04-19T06:23:29.714Z,74.87
2019-04-19T06:24:31.980Z,73.53
2019-04-19T06:25:35.590Z,73.66
2019-04-19T06:27:35.636Z,70.64
2019-04-19T06:28:30.715Z,71.00
2019-04-19T06:29:41.252Z,70.89
2019-04-19T06:30:30.331Z,69.51
2019-04-19T06:31:31.457Z,69.12
2019-04-19T06:32:36.290Z,71.47
2019-04-19T06:33:29.323Z,70.71
2019-04-19T06:34:30.939Z,68.47
2019-04-19T06:35:22.583Z,69.80
2019-04-19T06:36:12.524Z,71.15
2019-04-19T06:37:18.042Z,68.19
2019-04-19T06:38:11.620Z,66.40
2019-04-19T06:39:10.418Z,66.92
2019-04-19T06:40:19.103Z,65.37
2019-04-19T06:41:15.124Z,65.06
2019-04-19T06:42:13.290Z,64.82
2019-04-19T06:43:15.583Z,64.34
2019-04-19T06:44:20.936Z,63.30
2019-04-19T06:45:26.712Z,63.51
2019-04-19T06:46:26.819Z,62.43
2019-04-19T06:47:19.843Z,61.17
2019-04-19T06:48:15.002Z,61.97
2019-04-19T06:49:16.959Z,62.92
2019-04-19T06:50:10.975Z,62.27
2019-04-19T06:51:17.418Z,63.51
2019-04-19T06:52:17.898Z,61.06
2019-04-19T06:53:10.508Z,60.76
2019-04-19T06:54:12.703Z,59.04
2019-04-19T06:55:16.553Z,59.43
2019-04-19T06:56:19.237Z,59.76
2019-04-19T06:57:21.113Z,58.48
2019-04-19T06:58:15.982Z,59.02
2019-04-19T06:59:22.418Z,58.66
2019-04-19T07:00:23.327Z,58.46
2019-04-19T07:01:21.658Z,59.04
2019-04-19T07:02:11.346Z,58.87
2019-04-19T07:03:11.347Z,58.43
2019-04-19T07:04:10.713Z,58.61
2019-04-19T07:05:23.004Z,61.50
2019-04-19T07:06:26.984Z,59.17
2019-04-19T07:07:29.893Z,59.50
2019-04-19T07:08:53.165Z,57.41
2019-04-19T07:09:37.573Z,58.20
2019-04-19T07:10:36.888Z,57.26
2019-04-19T07:11:32.867Z,56.69
2019-04-19T07:12:31.215Z,57.15
2019-04-19T07:13:25.015Z,57.87
2019-04-19T07:14:17.205Z,57.54
2019-04-19T07:15:48.576Z,56.44
2019-04-19T07:16:30.220Z,56.24
2019-04-19T07:17:26.318Z,55.42
2019-04-19T07:18:25.025Z,55.27
2019-04-19T07:19:30.210Z,56.82
2019-04-19T07:20:24.385Z,56.24
2019-04-19T07:21:31.602Z,56.21
2019-04-19T07:22:22.824Z,56.93
2019-04-19T07:23:33.122Z,56.08
2019-04-19T07:24:33.532Z,58.87
2019-04-19T07:25:36.816Z,55.70
2019-04-19T07:26:33.765Z,55.11
2019-04-19T07:27:22.533Z,54.56
2019-04-19T07:28:18.431Z,55.19
2019-04-19T07:29:10.672Z,58.27
2019-04-19T07:30:11.892Z,53.51
2019-04-19T07:31:12.851Z,53.64
2019-04-19T07:32:10.575Z,52.93
2019-04-19T07:33:16.859Z,53.16
2019-04-19T07:34:28.908Z,52.96
2019-04-19T07:35:32.121Z,54.28
2019-04-19T07:36:28.657Z,55.50
2019-04-19T07:37:28.119Z,54.94
2019-04-19T07:38:47.777Z,55.14
2019-04-19T07:39:28.150Z,51.51
2019-04-19T07:40:33.853Z,49.85
2019-04-19T07:41:26.857Z,50.02
2019-04-19T07:42:30.469Z,50.40
2019-04-19T07:43:25.790Z,54.48
2019-04-19T07:44:22.253Z,53.34
2019-04-19T07:45:13.919Z,51.51
2019-04-19T07:46:31.402Z,50.45
2019-04-19T07:47:24.039Z,47.40
2019-04-19T07:48:13.578Z,48.72
2019-04-19T07:49:12.695Z,48.66
2019-04-19T07:50:17.917Z,47.51
2019-04-19T07:51:15.948Z,47.51
2019-04-19T07:52:19.352Z,49.34
2019-04-19T07:53:14.775Z,47.06
2019-04-19T07:54:15.699Z,45.37
2019-04-19T07:55:13.609Z,45.43
2019-04-19T07:56:21.841Z,46.48
2019-04-19T07:57:42.205Z,47.20
2019-04-19T07:58:38.874Z,47.26
2019-04-19T07:59:31.875Z,45.50
2019-04-19T08:01:45.789Z,45.77
2019-04-19T08:05:36.189Z,44.68
2019-04-19T08:06:53.962Z,46.78
2019-04-19T08:08:13.737Z,46.18
2019-04-19T08:09:34.678Z,47.98
2019-04-19T08:10:40.716Z,46.32
2019-04-19T08:13:48.585Z,46.78
2019-04-19T08:15:37.047Z,46.58
2019-04-19T08:17:26.266Z,43.65
2019-04-19T08:27:22.754Z,43.97
2019-04-19T08:28:20.730Z,44.52
2019-04-19T08:29:22.016Z,42.70
2019-04-19T08:30:16.693Z,43.38
2019-04-19T08:31:12.277Z,42.55
2019-04-19T08:32:11.108Z,45.22
2019-04-19T08:33:10.626Z,43.90
2019-04-19T08:34:15.651Z,42.95
2019-04-19T08:35:17.054Z,43.17
2019-04-19T08:36:13.807Z,43.97
2019-04-19T08:37:19.812Z,41.78
2019-04-19T08:38:17.518Z,42.80
2019-04-19T08:39:27.417Z,42.92
2019-04-19T08:40:27.936Z,43.42
2019-04-19T08:41:21.414Z,43.88
2019-04-19T08:42:30.933Z,43.90
2019-04-19T08:43:25.310Z,43.10
2019-04-19T08:44:27.919Z,43.65
2019-04-19T08:45:15.209Z,45.40
2019-04-19T08:46:11.228Z,44.93
2019-04-19T08:47:20.410Z,44.52
2019-04-19T08:48:17.469Z,41.61
2019-04-19T08:49:18.826Z,44.75
2019-04-19T08:50:13.455Z,44.00
2019-04-19T08:51:10.461Z,44.57
2019-04-19T08:52:15.300Z,42.23
2019-04-19T08:53:30.591Z,43.63
2019-04-19T08:54:31.403Z,44.05
2019-04-19T08:55:29.091Z,41.31
2019-04-19T08:56:23.021Z,41.80
2019-04-19T08:57:14.734Z,43.40
2019-04-19T08:58:29.814Z,41.43
2019-04-19T08:59:35.830Z,41.31
2019-04-19T09:00:40.854Z,41.63
2019-04-19T09:01:34.177Z,43.08
2019-04-19T09:02:29.010Z,44.30
2019-04-19T09:03:37.503Z,44.05
2019-04-19T09:04:30.409Z,42.58
2019-04-19T09:05:28.654Z,42.12
2019-04-19T09:07:15.914Z,41.23
2019-04-19T09:08:34.030Z,40.13
2019-04-19T09:09:32.695Z,40.78
2019-04-19T09:10:33.469Z,42.95
2019-04-19T09:11:24.786Z,41.01
2019-04-19T09:12:25.423Z,41.40
2019-04-19T09:13:34.013Z,40.16
2019-04-19T09:14:38.188Z,40.21
2019-04-19T09:15:31.972Z,38.52
2019-04-19T09:16:26.431Z,39.05
2019-04-19T09:17:47.522Z,40.13
2019-04-19T09:18:41.504Z,40.96
2019-04-19T09:19:45.786Z,41.58
2019-04-19T09:20:30.324Z,41.06
2019-04-19T09:21:23.014Z,39.74
2019-04-19T09:22:25.764Z,39.37
2019-04-19T09:23:23.738Z,39.62
2019-04-19T09:24:16.983Z,39.05
2019-04-19T09:25:24.367Z,40.34
2019-04-19T09:26:30.390Z,38.70
2019-04-19T09:27:38.468Z,39.47
2019-04-19T09:29:33.625Z,39.52
2019-04-19T09:30:27.737Z,40.76
2019-04-19T09:31:21.456Z,37.49
2019-04-19T09:32:17.497Z,37.81
2019-04-19T09:33:19.214Z,37.91
2019-04-19T09:34:15.462Z,41.35
2019-04-19T09:35:12.748Z,41.75
2019-04-19T09:36:15.415Z,41.61
2019-04-19T09:37:21.262Z,40.71
2019-04-19T09:38:20.951Z,38.85
2019-04-19T09:39:24.989Z,38.99
2019-04-19T09:40:15.297Z,38.63
2019-04-19T09:41:19.569Z,37.46
2019-04-19T09:42:24.368Z,37.36
2019-04-19T09:43:24.081Z,37.39
2019-04-19T09:44:19.517Z,37.98
2019-04-19T09:45:10.520Z,39.29
2019-04-19T09:46:10.581Z,37.66
2019-04-19T09:47:10.578Z,37.83
2019-04-19T09:48:31.692Z,39.29
2019-04-19T09:49:24.942Z,37.83
2019-04-19T09:50:29.727Z,37.58
2019-04-19T09:51:30.180Z,38.18
2019-04-19T09:52:40.041Z,39.17
2019-04-19T09:53:35.636Z,37.78
2019-04-19T09:54:32.297Z,38.30
2019-04-19T09:55:32.553Z,38.77
2019-04-19T09:56:27.936Z,42.42
2019-04-19T09:57:29.012Z,40.63
2019-04-19T09:58:26.496Z,39.69
2019-04-19T09:59:20.513Z,38.28
2019-04-19T10:00:16.609Z,36.18
2019-04-19T10:01:10.698Z,37.29
2019-04-19T10:02:15.246Z,37.41
2019-04-19T10:03:22.722Z,36.84
2019-04-19T10:04:10.914Z,37.22
2019-04-19T10:05:10.576Z,35.90
2019-04-19T10:06:11.035Z,35.86
2019-04-19T10:07:11.217Z,35.59
2019-04-19T10:08:11.575Z,36.42
2019-04-19T10:09:15.365Z,37.04
2019-04-19T10:10:13.104Z,37.53
2019-04-19T10:11:10.778Z,37.44
2019-04-19T10:12:11.296Z,36.28
2019-04-19T10:13:11.847Z,37.58
2019-04-19T10:14:12.935Z,34.67
2019-04-19T10:15:11.731Z,36.13
2019-04-19T10:16:10.568Z,36.18
2019-04-19T10:17:12.248Z,36.94
2019-04-19T10:18:10.642Z,40.11
2019-04-19T10:19:11.452Z,37.09
2019-04-19T10:20:10.913Z,34.70
2019-04-19T10:21:19.320Z,33.87
2019-04-19T10:22:10.586Z,36.87
2019-04-19T10:23:11.263Z,36.00
2019-04-19T10:24:14.832Z,33.13
2019-04-19T10:25:11.348Z,33.10
2019-04-19T10:26:12.330Z,34.33
2019-04-19T10:27:10.836Z,35.49
2019-04-19T10:28:11.827Z,36.82
2019-04-19T10:29:19.945Z,34.90
2019-04-19T10:31:11.423Z,34.04
2019-04-19T10:32:10.780Z,35.29
2019-04-19T10:33:10.834Z,36.94
2019-04-19T10:34:10.610Z,34.70
2019-04-19T10:35:11.520Z,34.38
2019-04-19T10:36:10.828Z,34.70
2019-04-19T10:37:10.951Z,34.16
2019-04-19T10:38:11.659Z,35.26
2019-04-19T10:39:11.816Z,34.18
2019-04-19T10:40:10.680Z,34.60
2019-04-19T10:41:11.602Z,35.12
2019-04-19T10:42:10.612Z,33.89
2019-04-19T10:43:11.451Z,36.20
2019-04-19T10:44:15.437Z,35.36
2019-04-19T10:45:12.045Z,33.49
2019-04-19T10:46:10.954Z,35.56
2019-04-19T10:47:10.672Z,36.62
2019-04-19T10:48:11.792Z,33.76
2019-04-19T10:49:17.338Z,37.27
2019-04-19T10:50:20.676Z,34.06
2019-04-19T10:51:12.178Z,36.84
2019-04-19T10:52:10.601Z,33.74
2019-04-19T10:53:10.598Z,32.79
2019-04-19T10:54:10.800Z,33.10
2019-04-19T10:55:10.699Z,35.51
2019-04-19T10:56:10.609Z,34.99
2019-04-19T10:57:10.565Z,35.88
2019-04-19T10:58:11.638Z,35.81
2019-04-19T10:59:10.596Z,34.16
2019-04-19T11:00:11.337Z,34.50
2019-04-19T11:01:11.411Z,33.84
2019-04-19T11:02:10.701Z,34.48
2019-04-19T11:03:10.784Z,34.73
2019-04-19T11:04:11.067Z,34.21
2019-04-19T11:05:11.207Z,33.87
2019-04-19T11:06:10.631Z,32.12
2019-04-19T11:07:11.703Z,32.86
2019-04-19T11:08:10.690Z,35.36
2019-04-19T11:09:10.690Z,35.19
2019-04-19T11:10:11.876Z,35.19
2019-04-19T11:11:11.699Z,35.12
2019-04-19T11:12:10.640Z,35.41
2019-04-19T11:13:10.792Z,36.11
2019-04-19T11:14:10.692Z,32.91
2019-04-19T11:15:10.849Z,33.91
2019-04-19T11:16:10.633Z,33.84
2019-04-19T11:17:11.620Z,34.95
2019-04-19T11:18:11.767Z,35.61
2019-04-19T11:19:17.452Z,34.43
2019-04-19T11:20:22.798Z,37.22
2019-04-19T11:21:11.596Z,36.28
2019-04-19T11:22:11.846Z,34.43
2019-04-19T11:23:11.375Z,34.01
2019-04-19T11:24:11.660Z,34.23
2019-04-19T11:25:10.644Z,36.59
2019-04-19T11:26:10.638Z,34.87
2019-04-19T11:27:11.052Z,35.21
2019-04-19T11:28:11.120Z,36.72
2019-04-19T11:29:11.086Z,35.04
2019-04-19T11:30:10.948Z,35.64
2019-04-19T11:31:10.992Z,33.59
2019-04-19T11:32:10.643Z,32.81
2019-04-19T11:33:10.918Z,34.82
2019-04-19T11:34:11.121Z,35.51
2019-04-19T11:35:11.734Z,34.62
2019-04-19T11:36:11.167Z,34.92
2019-04-19T11:37:13.438Z,36.13
2019-04-19T11:38:11.178Z,36.99
2019-04-19T11:39:10.707Z,34.18
2019-04-19T11:40:11.171Z,37.76
2019-04-19T11:41:11.218Z,34.82
2019-04-19T11:42:10.613Z,34.65
2019-04-19T11:43:11.968Z,35.46
2019-04-19T11:44:17.360Z,35.86
2019-04-19T11:45:11.970Z,36.28
2019-04-19T11:46:11.815Z,35.83
2019-04-19T11:47:11.120Z,34.50
2019-04-19T11:48:11.016Z,36.30
2019-04-19T11:49:23.694Z,37.68
2019-04-19T11:50:11.704Z,35.17
2019-04-19T11:51:11.789Z,34.55
2019-04-19T11:52:12.245Z,39.49
2019-04-19T11:53:10.722Z,37.24
2019-04-19T11:54:10.664Z,37.34
2019-04-19T11:55:10.684Z,37.09
2019-04-19T11:56:10.667Z,34.43
2019-04-19T11:57:10.896Z,33.37
2019-04-19T11:58:10.653Z,31.66
2019-04-19T11:59:10.904Z,34.52
2019-04-19T12:00:11.536Z,31.22
2019-04-19T12:01:12.082Z,30.51
2019-04-19T12:02:10.761Z,30.83
2019-04-19T12:03:11.909Z,29.24
2019-04-19T12:04:10.652Z,30.00
2019-04-19T12:05:16.493Z,31.92
2019-04-19T12:06:12.042Z,32.46
2019-04-19T12:07:10.734Z,31.53
2019-04-19T12:08:10.693Z,32.14
2019-04-19T12:09:10.648Z,31.19
2019-04-19T12:10:10.658Z,29.57
2019-04-19T12:11:10.667Z,29.04
2019-04-19T12:12:10.722Z,30.68
2019-04-19T12:13:11.048Z,31.36
2019-04-19T12:14:12.144Z,32.17
2019-04-19T12:15:10.699Z,31.51
2019-04-19T12:16:10.941Z,31.44
2019-04-19T12:17:11.154Z,33.84
2019-04-19T12:18:10.670Z,33.96
2019-04-19T12:19:11.985Z,32.19
2019-04-19T12:20:11.328Z,31.19
2019-04-19T12:21:11.337Z,32.29
2019-04-19T12:22:10.739Z,31.02
2019-04-19T12:23:11.693Z,31.70
2019-04-19T12:24:10.882Z,32.96
2019-04-19T12:25:11.927Z,31.44
2019-04-19T12:26:11.551Z,31.61
2019-04-19T12:27:11.685Z,31.83
2019-04-19T12:28:11.796Z,34.97
2019-04-19T12:29:22.804Z,34.18
2019-04-19T12:30:11.555Z,34.87
2019-04-19T12:31:11.533Z,34.75
2019-04-19T12:32:11.747Z,36.99
2019-04-19T12:33:11.213Z,35.78
2019-04-19T12:34:11.666Z,35.44
2019-04-19T12:35:11.021Z,34.85
2019-04-19T12:36:10.955Z,35.41
2019-04-19T12:37:11.093Z,35.04
2019-04-19T12:38:10.744Z,34.21
2019-04-19T12:39:10.673Z,33.71
2019-04-19T12:40:10.910Z,37.16
2019-04-19T12:41:12.094Z,36.84
2019-04-19T12:42:11.253Z,37.96
2019-04-19T12:43:11.900Z,33.00
2019-04-19T12:44:11.085Z,31.31
2019-04-19T12:45:10.719Z,28.84
2019-04-19T12:46:10.960Z,30.09
2019-04-19T12:47:11.027Z,30.14
2019-04-19T12:48:11.792Z,30.95
2019-04-19T12:49:10.679Z,34.67
2019-04-19T12:50:11.760Z,29.08
2019-04-19T12:51:12.120Z,28.54
2019-04-19T12:52:10.749Z,30.31
2019-04-19T12:53:10.755Z,27.38
2019-04-19T12:54:11.991Z,27.90
2019-04-19T12:55:10.704Z,28.21
2019-04-19T12:56:11.758Z,26.61
2019-04-19T12:57:11.916Z,29.93
2019-04-19T12:58:10.686Z,28.70
2019-04-19T12:59:11.624Z,32.27
2019-04-19T13:00:11.681Z,35.68
2019-04-19T13:01:12.115Z,34.82
2019-04-19T13:02:11.715Z,33.69
2019-04-19T13:03:11.882Z,35.04
2019-04-19T13:04:10.778Z,34.35
2019-04-19T13:05:11.695Z,34.80
2019-04-19T13:06:11.481Z,32.39
2019-04-19T13:07:10.994Z,33.27
2019-04-19T13:08:11.517Z,32.96
2019-04-19T13:09:11.069Z,29.06
2019-04-19T13:10:11.094Z,30.09
2019-04-19T13:11:11.287Z,31.34
2019-04-19T13:12:10.846Z,32.32
2019-04-19T13:13:11.806Z,30.53
2019-04-19T13:14:11.993Z,32.36
2019-04-19T13:15:11.592Z,33.99
2019-04-19T13:16:10.719Z,32.98
2019-04-19T13:17:10.727Z,34.16
2019-04-19T13:18:11.997Z,33.64
2019-04-19T13:19:12.151Z,32.27
2019-04-19T13:20:19.098Z,32.68
2019-04-19T13:21:11.498Z,29.81
2019-04-19T13:22:10.819Z,33.20
2019-04-19T13:23:10.774Z,29.95
2019-04-19T13:24:10.997Z,30.83
2019-04-19T13:25:14.771Z,31.85
2019-04-19T13:26:11.373Z,32.19
2019-04-19T13:27:11.617Z,31.95
2019-04-19T13:28:11.288Z,31.19